createdAt,value
2022-10-11T00:00:37.712Z,9.60
2022-10-11T00:03:05.063Z,9.60
2022-10-11T00:05:33.001Z,9.60
2022-10-11T00:08:00.335Z,9.50
2022-10-11T00:10:27.539Z,9.40
2022-10-11T00:12:54.773Z,9.20
2022-10-11T00:15:22.628Z,9.10
2022-10-11T00:17:49.937Z,8.90
2022-10-11T00:20:17.578Z,8.80
2022-10-11T00:22:44.833Z,8.70
2022-10-11T00:25:13.367Z,8.60
2022-10-11T00:27:40.542Z,8.50
2022-10-11T00:30:09.164Z,8.40
2022-10-11T00:32:38.547Z,8.30
2022-10-11T00:35:07.651Z,8.30
2022-10-11T00:37:36.481Z,8.30
2022-10-11T00:40:10.287Z,8.20
2022-10-11T00:42:37.558Z,8.20
2022-10-11T00:45:26.524Z,8.20
2022-10-11T00:48:05.057Z,8.20
2022-10-11T00:50:35.287Z,8.20
2022-10-11T00:53:08.214Z,8.30
2022-10-11T00:55:39.243Z,8.20
2022-10-11T00:58:07.684Z,8.20
2022-10-11T01:00:35.087Z,8.20
2022-10-11T01:03:04.535Z,8.30
2022-10-11T01:05:32.316Z,8.30
2022-10-11T01:08:00.967Z,8.30
2022-10-11T01:10:29.335Z,8.30
2022-10-11T01:13:07.965Z,8.30
2022-10-11T01:16:04.824Z,8.30
2022-10-11T01:18:49.915Z,8.30
2022-10-11T01:21:42.618Z,8.40
2022-10-11T01:24:12.671Z,8.50
2022-10-11T01:26:51.901Z,8.60
2022-10-11T01:29:31.866Z,8.60
2022-10-11T01:32:19.296Z,8.60
2022-10-11T01:34:59.242Z,8.70
2022-10-11T01:37:37.823Z,8.60
2022-10-11T01:40:18.339Z,8.60
2022-10-11T01:42:46.750Z,8.60
2022-10-11T01:45:17.315Z,8.50
2022-10-11T01:47:46.034Z,8.50
2022-10-11T01:50:31.740Z,8.60
2022-10-11T01:53:13.019Z,8.60
2022-10-11T01:56:07.028Z,8.60
2022-10-11T01:58:52.994Z,8.70
2022-10-11T02:01:49.056Z,8.80
2022-10-11T02:04:36.487Z,8.90
2022-10-11T02:07:12.277Z,9.00
2022-10-11T02:09:49.498Z,9.00
2022-10-11T02:12:30.514Z,9.10
2022-10-11T02:14:58.427Z,9.20
2022-10-11T02:17:33.791Z,9.20
2022-10-11T02:20:06.751Z,9.30
2022-10-11T02:22:40.930Z,9.30
2022-10-11T02:25:13.746Z,9.30
2022-10-11T02:27:42.311Z,9.30
2022-10-11T02:30:11.387Z,9.30
2022-10-11T02:32:42.199Z,9.30
2022-10-11T02:35:10.841Z,9.30
2022-10-11T02:37:43.963Z,9.50
2022-10-11T02:40:15.015Z,9.50
2022-10-11T02:43:01.655Z,9.50
2022-10-11T02:45:36.895Z,9.40
2022-10-11T02:48:06.051Z,9.40
2022-10-11T02:50:33.608Z,9.40
2022-10-11T02:53:00.834Z,9.50
2022-10-11T02:55:27.988Z,9.50
2022-10-11T02:57:55.276Z,9.50
2022-10-11T03:00:22.653Z,9.50
2022-10-11T03:02:49.874Z,9.50
2022-10-11T03:05:17.118Z,9.40
2022-10-11T03:07:44.290Z,9.40
2022-10-11T03:10:11.600Z,9.40
2022-10-11T03:12:38.708Z,9.40
2022-10-11T03:15:06.354Z,9.30
2022-10-11T03:17:37.444Z,9.30
2022-10-11T03:20:06.435Z,9.30
2022-10-11T03:22:33.693Z,9.20
2022-10-11T03:25:04.018Z,9.20
2022-10-11T03:27:32.984Z,9.20
2022-10-11T03:30:00.815Z,9.20
2022-10-11T03:32:28.450Z,9.20
2022-10-11T03:34:55.861Z,9.30
2022-10-11T03:37:23.060Z,9.40
2022-10-11T03:39:50.434Z,9.30
2022-10-11T03:42:17.600Z,9.40
2022-10-11T03:44:44.894Z,9.40
2022-10-11T03:47:12.848Z,9.30
2022-10-11T03:49:43.476Z,9.30
2022-10-11T03:52:11.367Z,9.30
2022-10-11T03:54:38.603Z,9.30
2022-10-11T03:57:05.797Z,9.30
2022-10-11T03:59:32.986Z,9.40
2022-10-11T04:02:00.278Z,9.40
2022-10-11T04:04:27.488Z,9.40
2022-10-11T04:06:54.656Z,9.40
2022-10-11T04:09:21.955Z,9.40
2022-10-11T04:11:49.107Z,9.40
2022-10-11T04:14:16.884Z,9.40
2022-10-11T04:16:44.064Z,9.40
2022-10-11T04:19:11.227Z,9.40
2022-10-11T04:21:38.550Z,9.30
2022-10-11T04:24:06.058Z,9.30
2022-10-11T04:26:33.389Z,9.30
2022-10-11T04:29:00.957Z,9.20
2022-10-11T04:31:28.141Z,9.20
2022-10-11T04:33:55.430Z,9.20
2022-10-11T04:36:22.693Z,9.20
2022-10-11T04:38:49.941Z,9.30
2022-10-11T04:41:17.739Z,9.30
2022-10-11T04:43:45.000Z,9.20
2022-10-11T04:46:12.190Z,9.20
2022-10-11T04:48:39.563Z,9.20
2022-10-11T04:51:07.086Z,9.20
2022-10-11T04:53:34.618Z,9.30
2022-10-11T04:56:05.741Z,9.30
2022-10-11T04:58:34.145Z,9.20
2022-10-11T05:01:01.477Z,9.20
2022-10-11T05:03:28.941Z,9.20
2022-10-11T05:05:56.416Z,9.20
2022-10-11T05:08:24.477Z,9.20
2022-10-11T05:11:00.001Z,9.20
2022-10-11T05:13:28.739Z,9.20
2022-10-11T05:15:56.573Z,9.20
2022-10-11T05:18:24.414Z,9.20
2022-10-11T05:21:07.009Z,9.20
2022-10-11T05:23:36.467Z,9.30
2022-10-11T05:26:04.264Z,9.30
2022-10-11T05:28:32.395Z,9.30
2022-10-11T05:30:59.847Z,9.20
2022-10-11T05:33:27.835Z,9.20
2022-10-11T05:35:55.053Z,9.10
2022-10-11T05:38:23.006Z,9.10
2022-10-11T05:40:50.469Z,9.10
2022-10-11T05:43:17.789Z,9.10
2022-10-11T05:45:45.775Z,9.10
2022-10-11T05:48:13.153Z,9.00
2022-10-11T05:50:40.763Z,9.10
2022-10-11T05:53:08.472Z,9.00
2022-10-11T05:55:41.336Z,9.00
2022-10-11T05:58:12.687Z,9.00
2022-10-11T06:00:40.067Z,9.00
2022-10-11T06:03:08.848Z,9.00
2022-10-11T06:05:36.225Z,9.00
2022-10-11T06:08:06.141Z,9.00
2022-10-11T06:10:33.919Z,8.90
2022-10-11T06:13:01.458Z,8.90
2022-10-11T06:15:28.648Z,8.90
2022-10-11T06:17:56.346Z,8.90
2022-10-11T06:20:23.785Z,8.90
2022-10-11T06:22:51.062Z,8.90
2022-10-11T06:25:18.260Z,8.90
2022-10-11T06:27:45.755Z,8.90
2022-10-11T06:30:13.188Z,8.80
2022-10-11T06:32:40.356Z,8.80
2022-10-11T06:35:08.332Z,8.80
2022-10-11T06:37:35.535Z,8.80
2022-10-11T06:40:02.789Z,8.80
2022-10-11T06:42:30.205Z,8.80
2022-10-11T06:44:57.340Z,8.80
2022-10-11T06:47:24.453Z,8.80
2022-10-11T06:49:51.622Z,8.70
2022-10-11T06:52:18.852Z,8.70
2022-10-11T06:54:46.060Z,8.70
2022-10-11T06:57:13.273Z,8.70
2022-10-11T06:59:40.496Z,8.80
2022-10-11T07:02:08.841Z,8.90
2022-10-11T07:04:36.102Z,8.90
2022-10-11T07:07:03.408Z,8.90
2022-10-11T07:09:31.043Z,8.80
2022-10-11T07:11:58.331Z,8.80
2022-10-11T07:14:25.883Z,8.90
2022-10-11T07:16:53.113Z,8.90
2022-10-11T07:19:20.282Z,9.00
2022-10-11T07:21:47.677Z,9.10
2022-10-11T07:24:14.936Z,9.00
2022-10-11T07:26:42.425Z,8.80
2022-10-11T07:29:11.740Z,8.60
2022-10-11T07:31:42.024Z,8.60
2022-10-11T07:34:10.101Z,8.60
2022-10-11T07:36:37.562Z,8.70
2022-10-11T07:39:07.717Z,8.90
2022-10-11T07:41:35.734Z,9.00
2022-10-11T07:44:05.810Z,9.00
2022-10-11T07:46:33.402Z,9.10
2022-10-11T07:49:00.736Z,9.20
2022-10-11T07:51:28.010Z,9.20
2022-10-11T07:53:56.912Z,9.30
2022-10-11T07:56:26.945Z,9.40
2022-10-11T07:58:59.066Z,9.20
2022-10-11T08:01:28.057Z,9.30
2022-10-11T08:03:57.089Z,9.10
2022-10-11T08:06:29.365Z,8.80
2022-10-11T08:08:57.618Z,8.80
2022-10-11T08:11:34.265Z,8.70
2022-10-11T08:14:03.732Z,8.80
2022-10-11T08:16:31.050Z,8.90
2022-10-11T08:18:58.581Z,9.00
2022-10-11T08:21:27.043Z,9.20
2022-10-11T08:23:54.259Z,9.30
2022-10-11T08:26:21.874Z,9.30
2022-10-11T08:28:49.197Z,9.30
2022-10-11T08:31:17.221Z,9.40
2022-10-11T08:33:44.616Z,9.50
2022-10-11T08:36:12.758Z,9.60
2022-10-11T08:38:40.523Z,9.60
2022-10-11T08:41:28.450Z,9.40
2022-10-11T08:44:10.756Z,9.20
2022-10-11T08:46:40.137Z,9.10
2022-10-11T08:49:09.916Z,9.20
2022-10-11T08:51:45.591Z,9.60
2022-10-11T08:54:36.115Z,9.50
2022-10-11T08:57:06.164Z,9.40
2022-10-11T08:59:43.457Z,9.30
2022-10-11T09:02:13.966Z,9.30
2022-10-11T09:04:41.282Z,9.20
2022-10-11T09:07:26.408Z,9.30
2022-10-11T09:10:08.314Z,9.20
2022-10-11T09:12:55.092Z,9.30
2022-10-11T09:15:47.017Z,9.30
2022-10-11T09:18:31.906Z,9.20
2022-10-11T09:21:13.695Z,9.20
2022-10-11T09:23:51.613Z,9.20
2022-10-11T09:26:29.896Z,9.40
2022-10-11T09:29:12.391Z,9.50
2022-10-11T09:31:39.604Z,9.50
2022-10-11T09:34:12.792Z,9.40
2022-10-11T09:37:00.636Z,9.50
2022-10-11T09:40:00.439Z,9.70
2022-10-11T09:42:27.567Z,9.70
2022-10-11T09:44:57.408Z,9.60
2022-10-11T09:47:30.182Z,9.60
2022-10-11T09:50:06.891Z,9.70
2022-10-11T09:52:34.478Z,9.90
2022-10-11T09:55:03.065Z,10.00
2022-10-11T09:57:37.139Z,10.00
2022-10-11T10:00:18.945Z,10.00
2022-10-11T10:02:47.632Z,10.30
2022-10-11T10:05:17.122Z,10.40
2022-10-11T10:08:09.859Z,10.30
2022-10-11T10:11:07.357Z,10.00
2022-10-11T10:13:46.142Z,9.80
2022-10-11T10:16:39.661Z,9.90
2022-10-11T10:19:17.860Z,9.90
2022-10-11T10:21:50.522Z,9.90
2022-10-11T10:24:29.647Z,9.70
2022-10-11T10:27:18.591Z,9.60
2022-10-11T10:30:01.010Z,9.40
2022-10-11T10:33:00.347Z,9.30
2022-10-11T10:35:32.562Z,9.20
2022-10-11T10:38:22.804Z,9.10
2022-10-11T10:40:56.775Z,9.20
2022-10-11T10:43:27.134Z,9.40
2022-10-11T10:46:00.052Z,9.50
2022-10-11T10:52:19.015Z,9.60
2022-10-11T10:54:56.690Z,9.80
2022-10-11T10:57:38.251Z,9.80
2022-10-11T11:00:17.036Z,9.80
2022-10-11T11:03:06.997Z,10.00
2022-10-11T11:05:51.194Z,10.20
2022-10-11T11:08:37.413Z,10.20
2022-10-11T11:11:25.621Z,10.00
2022-10-11T11:14:12.877Z,9.80
2022-10-11T11:17:20.838Z,9.70
2022-10-11T11:19:54.124Z,9.60
2022-10-11T11:22:41.898Z,9.70
2022-10-11T11:25:32.751Z,9.90
2022-10-11T11:28:05.590Z,10.10
2022-10-11T11:30:50.681Z,10.50
2022-10-11T11:33:48.653Z,10.40
2022-10-11T11:36:30.772Z,10.60
2022-10-11T11:39:04.581Z,11.00
2022-10-11T11:41:40.885Z,11.30
2022-10-11T11:44:35.169Z,11.00
2022-10-11T11:47:18.142Z,10.60
2022-10-11T11:49:53.785Z,10.70
2022-10-11T11:52:28.547Z,10.60
2022-10-11T11:55:07.508Z,10.70
2022-10-11T11:58:20.689Z,10.70
2022-10-11T12:01:03.394Z,10.60
2022-10-11T12:03:41.729Z,10.60
2022-10-11T12:06:15.096Z,10.60
2022-10-11T12:08:46.132Z,10.80
2022-10-11T12:11:24.219Z,10.80
2022-10-11T12:13:53.288Z,10.60
2022-10-11T12:16:21.388Z,10.40
2022-10-11T12:18:59.998Z,10.60
2022-10-11T12:21:43.692Z,10.70
2022-10-11T12:24:20.216Z,10.70
2022-10-11T12:26:49.430Z,10.90
2022-10-11T12:29:31.913Z,11.00
2022-10-11T12:31:59.038Z,11.00
2022-10-11T12:34:42.333Z,11.00
2022-10-11T12:37:19.050Z,11.20
2022-10-11T12:39:57.637Z,11.30
2022-10-11T12:42:32.849Z,11.20
2022-10-11T12:45:20.301Z,11.20
2022-10-11T12:48:02.813Z,11.10
2022-10-11T12:50:39.957Z,11.20
2022-10-11T12:53:33.439Z,11.30
2022-10-11T12:56:07.253Z,11.20
2022-10-11T12:58:40.726Z,11.30
2022-10-11T13:01:09.837Z,11.30
2022-10-11T13:03:45.008Z,11.10
2022-10-11T13:06:25.604Z,11.20
2022-10-11T13:09:25.087Z,11.30
2022-10-11T13:12:15.516Z,11.20
2022-10-11T13:14:56.323Z,11.10
2022-10-11T13:17:37.262Z,11.10
2022-10-11T13:20:18.213Z,11.10
2022-10-11T13:22:48.594Z,11.20
2022-10-11T13:25:22.636Z,11.20
2022-10-11T13:27:52.084Z,11.30
2022-10-11T13:30:32.043Z,11.30
2022-10-11T13:33:08.811Z,11.50
2022-10-11T13:35:37.563Z,11.50
2022-10-11T13:38:09.088Z,11.50
2022-10-11T13:40:37.730Z,11.60
2022-10-11T13:43:06.187Z,11.30
2022-10-11T13:45:36.084Z,11.20
2022-10-11T13:48:05.171Z,11.20
2022-10-11T13:50:34.620Z,11.30
2022-10-11T13:53:23.786Z,11.40
2022-10-11T13:56:04.387Z,11.40
2022-10-11T13:58:40.422Z,11.40
2022-10-11T14:01:33.470Z,11.20
2022-10-11T14:04:04.136Z,11.10
2022-10-11T14:06:54.103Z,10.90
2022-10-11T14:09:26.506Z,11.10
2022-10-11T14:11:54.902Z,11.10
2022-10-11T14:14:34.458Z,11.10
2022-10-11T14:17:12.961Z,11.10
2022-10-11T14:19:40.615Z,11.10
2022-10-11T14:22:14.893Z,10.90
2022-10-11T14:24:43.018Z,10.80
2022-10-11T14:27:20.111Z,10.90
2022-10-11T14:30:06.053Z,10.90
2022-10-11T14:32:36.587Z,10.80
2022-10-11T14:35:04.790Z,10.70
2022-10-11T14:37:32.056Z,10.70
2022-10-11T14:39:59.319Z,10.60
2022-10-11T14:42:26.521Z,10.60
2022-10-11T14:44:53.754Z,10.60
2022-10-11T14:47:21.066Z,10.50
2022-10-11T14:49:48.324Z,10.40
2022-10-11T14:52:15.631Z,10.40
2022-10-11T14:54:42.884Z,10.40
2022-10-11T14:57:12.280Z,10.30
2022-10-11T14:59:39.713Z,10.30
2022-10-11T15:02:08.791Z,10.30
2022-10-11T15:04:35.970Z,10.10
2022-10-11T15:07:03.950Z,10.10
2022-10-11T15:09:31.237Z,10.00
2022-10-11T15:11:58.552Z,10.00
2022-10-11T15:14:26.250Z,9.90
2022-10-11T15:16:53.833Z,9.80
2022-10-11T15:19:23.929Z,9.70
2022-10-11T15:21:51.597Z,9.60
2022-10-11T15:24:22.009Z,9.50
2022-10-11T15:26:50.580Z,9.50
2022-10-11T15:29:18.166Z,9.50
2022-10-11T15:31:46.555Z,9.40
2022-10-11T15:34:16.726Z,9.30
2022-10-11T15:36:44.561Z,9.30
2022-10-11T15:39:32.713Z,9.10
2022-10-11T15:42:00.392Z,9.00
2022-10-11T15:44:27.700Z,8.80
2022-10-11T15:46:54.901Z,8.70
2022-10-11T15:49:22.440Z,8.70
2022-10-11T15:51:49.853Z,8.60
2022-10-11T15:54:17.250Z,8.40
2022-10-11T15:56:44.496Z,8.30
2022-10-11T15:59:12.036Z,8.20
2022-10-11T16:01:39.810Z,8.20
2022-10-11T16:04:07.007Z,8.10
2022-10-11T16:06:34.501Z,8.10
2022-10-11T16:09:01.633Z,8.10
2022-10-11T16:11:28.789Z,8.00
2022-10-11T16:13:56.004Z,7.90
2022-10-11T16:16:23.437Z,7.80
2022-10-11T16:18:51.467Z,7.70
2022-10-11T16:21:20.588Z,7.70
2022-10-11T16:23:48.107Z,7.50
2022-10-11T16:26:16.889Z,7.40
2022-10-11T16:28:44.356Z,7.30
2022-10-11T16:31:18.317Z,7.10
2022-10-11T16:33:46.208Z,7.10
2022-10-11T16:36:34.703Z,7.10
2022-10-11T16:39:05.260Z,7.00
2022-10-11T16:41:32.633Z,6.90
2022-10-11T16:43:59.994Z,6.80
2022-10-11T16:46:27.247Z,6.70
2022-10-11T16:48:56.635Z,6.70
2022-10-11T16:51:27.329Z,6.60
2022-10-11T16:53:54.499Z,6.60
2022-10-11T16:56:22.842Z,6.50
2022-10-11T16:58:50.594Z,6.50
2022-10-11T17:01:17.897Z,6.40
2022-10-11T17:03:45.273Z,6.30
2022-10-11T17:06:12.513Z,6.30
2022-10-11T17:08:39.646Z,6.20
2022-10-11T17:11:06.949Z,6.10
2022-10-11T17:13:34.109Z,6.00
2022-10-11T17:16:01.574Z,6.00
2022-10-11T17:18:28.967Z,5.90
2022-10-11T17:21:04.027Z,5.80
2022-10-11T17:23:31.601Z,5.80
2022-10-11T17:26:01.890Z,5.80
2022-10-11T17:28:34.535Z,5.70
2022-10-11T17:31:02.761Z,5.60
2022-10-11T17:33:30.747Z,5.50
2022-10-11T17:35:59.854Z,5.50
2022-10-11T17:38:28.794Z,5.40
2022-10-11T17:41:02.000Z,5.40
2022-10-11T17:43:29.770Z,5.40
2022-10-11T17:45:58.693Z,5.40
2022-10-11T17:48:29.693Z,5.30
2022-10-11T17:50:56.976Z,5.30
2022-10-11T17:53:24.229Z,5.30
2022-10-11T17:55:53.823Z,5.30
2022-10-11T17:58:21.020Z,5.30
2022-10-11T18:00:48.349Z,5.30
2022-10-11T18:03:15.772Z,5.30
2022-10-11T18:05:42.942Z,5.30
2022-10-11T18:08:11.214Z,5.30
2022-10-11T18:10:38.742Z,5.20
2022-10-11T18:13:07.000Z,5.20
2022-10-11T18:15:35.182Z,5.10
2022-10-11T18:18:04.954Z,5.10
2022-10-11T18:20:32.485Z,4.90
2022-10-11T18:23:00.393Z,4.80
2022-10-11T18:25:27.568Z,4.80
2022-10-11T18:27:54.841Z,4.70
2022-10-11T18:30:22.099Z,4.70
2022-10-11T18:32:49.604Z,4.70
2022-10-11T18:35:17.017Z,4.70
2022-10-11T18:37:44.143Z,4.60
2022-10-11T18:40:11.504Z,4.50
2022-10-11T18:42:38.699Z,4.50
2022-10-11T18:45:06.828Z,4.40
2022-10-11T18:47:34.306Z,4.40
2022-10-11T18:50:01.915Z,4.40
2022-10-11T18:52:29.195Z,4.40
2022-10-11T18:54:56.794Z,4.40
2022-10-11T18:57:24.534Z,4.40
2022-10-11T18:59:54.582Z,4.30
2022-10-11T19:02:21.987Z,4.30
2022-10-11T19:04:52.771Z,4.20
2022-10-11T19:07:21.094Z,4.20
2022-10-11T19:09:48.665Z,4.30
2022-10-11T19:12:16.250Z,4.20
2022-10-11T19:14:43.890Z,4.20
2022-10-11T19:17:12.564Z,4.10
2022-10-11T19:19:41.026Z,4.10
2022-10-11T19:22:08.262Z,4.10
2022-10-11T19:24:35.570Z,4.10
2022-10-11T19:27:03.159Z,4.00
2022-10-11T19:29:31.207Z,4.00
2022-10-11T19:32:00.841Z,4.00
2022-10-11T19:34:28.883Z,4.00
2022-10-11T19:36:56.707Z,4.00
2022-10-11T19:39:25.723Z,3.90
2022-10-11T19:41:53.199Z,3.80
2022-10-11T19:44:21.000Z,3.80
2022-10-11T19:46:52.711Z,3.70
2022-10-11T19:49:24.165Z,3.70
2022-10-11T19:51:52.500Z,3.70
2022-10-11T19:54:20.042Z,3.70
2022-10-11T19:56:48.105Z,3.60
2022-10-11T19:59:15.821Z,3.60
2022-10-11T20:01:45.592Z,3.60
2022-10-11T20:04:33.547Z,3.50
2022-10-11T20:07:03.069Z,3.50
2022-10-11T20:09:30.950Z,3.40
2022-10-11T20:11:59.211Z,3.30
2022-10-11T20:14:26.771Z,3.30
2022-10-11T20:16:53.958Z,3.20
2022-10-11T20:19:26.243Z,3.30
2022-10-11T20:21:56.719Z,3.30
2022-10-11T20:24:24.135Z,3.20
2022-10-11T20:26:51.522Z,3.20
2022-10-11T20:29:19.075Z,3.10
2022-10-11T20:31:46.157Z,3.10
2022-10-11T20:34:13.603Z,3.10
2022-10-11T20:36:40.935Z,3.10
2022-10-11T20:39:10.321Z,3.10
2022-10-11T20:41:40.098Z,3.10
2022-10-11T20:44:09.120Z,3.10
2022-10-11T20:46:38.595Z,3.00
2022-10-11T20:49:08.830Z,3.00
2022-10-11T20:51:38.415Z,2.90
2022-10-11T20:54:06.015Z,2.90
2022-10-11T20:56:33.945Z,2.90
2022-10-11T20:59:01.585Z,2.90
2022-10-11T21:01:31.929Z,2.90
2022-10-11T21:04:00.762Z,2.80
2022-10-11T21:06:30.063Z,2.80
2022-10-11T21:08:59.262Z,2.80
2022-10-11T21:11:27.716Z,2.70
2022-10-11T21:13:56.676Z,2.70
2022-10-11T21:16:24.179Z,2.70
2022-10-11T21:18:52.610Z,2.60
2022-10-11T21:21:20.409Z,2.60
2022-10-11T21:23:47.632Z,2.60
2022-10-11T21:26:18.462Z,2.50
2022-10-11T21:28:46.984Z,2.50
2022-10-11T21:31:17.341Z,2.40
2022-10-11T21:33:45.028Z,2.40
2022-10-11T21:36:15.283Z,2.30
2022-10-11T21:38:42.758Z,2.30
2022-10-11T21:41:15.466Z,2.20
2022-10-11T21:43:42.870Z,2.20
2022-10-11T21:46:19.402Z,2.10
2022-10-11T21:48:47.468Z,2.10
2022-10-11T21:51:17.755Z,2.10
2022-10-11T21:53:44.996Z,2.10
2022-10-11T21:56:12.301Z,2.10
2022-10-11T21:58:39.481Z,2.00
2022-10-11T22:01:06.735Z,2.00
2022-10-11T22:03:34.378Z,1.90
2022-10-11T22:06:04.711Z,1.80
2022-10-11T22:08:32.031Z,1.80
2022-10-11T22:11:00.966Z,1.80
2022-10-11T22:13:29.828Z,1.80
2022-10-11T22:15:57.264Z,1.70
2022-10-11T22:18:25.670Z,1.60
2022-10-11T22:20:53.246Z,1.60
2022-10-11T22:23:20.612Z,1.60
2022-10-11T22:25:47.781Z,1.60
2022-10-11T22:28:14.944Z,1.50
2022-10-11T22:30:42.775Z,1.40
2022-10-11T22:33:09.884Z,1.50
2022-10-11T22:35:38.080Z,1.50
2022-10-11T22:38:06.501Z,1.50
2022-10-11T22:40:33.780Z,1.40
2022-10-11T22:43:00.926Z,1.40
2022-10-11T22:45:28.162Z,1.40
2022-10-11T22:47:55.376Z,1.30
2022-10-11T22:50:22.751Z,1.30
2022-10-11T22:52:50.072Z,1.40
2022-10-11T22:55:20.108Z,1.40
2022-10-11T22:57:47.552Z,1.40
2022-10-11T23:00:15.107Z,1.30
2022-10-11T23:02:42.512Z,1.40
2022-10-11T23:05:09.947Z,1.30
2022-10-11T23:07:37.379Z,1.40
2022-10-11T23:10:05.129Z,1.30
2022-10-11T23:12:32.478Z,1.30
2022-10-11T23:14:59.635Z,1.30
2022-10-11T23:17:26.787Z,1.30
2022-10-11T23:19:53.957Z,1.30
2022-10-11T23:22:21.137Z,1.20
2022-10-11T23:24:48.573Z,1.10
2022-10-11T23:27:15.900Z,1.10
2022-10-11T23:29:43.267Z,1.10
2022-10-11T23:32:11.317Z,1.20
2022-10-11T23:34:38.831Z,1.10
2022-10-11T23:37:06.479Z,1.10
2022-10-11T23:39:33.790Z,1.10
2022-10-11T23:42:00.917Z,1.10
2022-10-11T23:44:28.479Z,1.10
2022-10-11T23:46:55.627Z,1.10
2022-10-11T23:49:22.780Z,1.10
2022-10-11T23:51:49.931Z,1.10
2022-10-11T23:54:17.156Z,1.10
2022-10-11T23:56:44.354Z,1.10
2022-10-11T23:59:11.437Z,1.10
